createdAt,value
2022-10-23T00:04:52.512Z,99486.78
2022-10-23T00:09:54.474Z,99478.66
2022-10-23T00:14:56.503Z,99461.78
2022-10-23T00:19:58.679Z,99464.59
2022-10-23T00:25:00.600Z,99449.94
2022-10-23T00:30:03.776Z,99443.63
2022-10-23T00:35:06.121Z,99441.66
2022-10-23T00:40:08.498Z,99438.03
2022-10-23T00:45:12.728Z,99429.25
2022-10-23T00:50:14.955Z,99420.97
2022-10-23T00:55:18.408Z,99415.84
2022-10-23T01:00:25.168Z,99417.50
2022-10-23T01:05:40.444Z,99420.13
2022-10-23T01:10:45.791Z,99407.41
2022-10-23T01:15:47.674Z,99399.34
2022-10-23T01:21:04.765Z,99402.13
2022-10-23T01:26:15.699Z,99390.91
2022-10-23T01:31:35.617Z,99387.94
2022-10-23T01:36:40.634Z,99396.66
2022-10-23T01:41:46.482Z,99381.13
2022-10-23T01:46:54.032Z,99388.75
2022-10-23T01:51:58.706Z,99376.50
2022-10-23T01:57:01.560Z,99374.50
2022-10-23T02:02:06.800Z,99372.84
2022-10-23T02:07:09.020Z,99366.84
2022-10-23T02:12:19.329Z,99359.88
2022-10-23T02:17:42.980Z,99363.25
2022-10-23T02:23:03.471Z,99363.03
2022-10-23T02:28:08.039Z,99351.78
2022-10-23T02:33:17.872Z,99353.84
2022-10-23T02:38:28.709Z,99356.47
2022-10-23T02:43:36.964Z,99350.31
2022-10-23T02:48:43.229Z,99351.25
2022-10-23T02:54:00.906Z,99336.72
2022-10-23T02:59:27.915Z,99344.78
2022-10-23T03:04:30.889Z,99335.69
2022-10-23T03:09:32.784Z,99331.16
2022-10-23T03:14:34.749Z,99326.09
2022-10-23T03:19:37.725Z,99322.78
2022-10-23T03:24:40.249Z,99311.41
2022-10-23T03:29:42.934Z,99313.53
2022-10-23T03:34:44.946Z,99304.06
2022-10-23T03:39:46.873Z,99309.47
2022-10-23T03:44:49.576Z,99301.91
2022-10-23T03:49:53.613Z,99298.22
2022-10-23T03:54:55.598Z,99302.69
2022-10-23T03:59:58.649Z,99297.09
2022-10-23T04:05:05.545Z,99291.66
2022-10-23T04:10:08.817Z,99275.94
2022-10-23T04:15:11.004Z,99289.50
2022-10-23T04:20:13.081Z,99286.84
2022-10-23T04:25:16.645Z,99288.81
2022-10-23T04:30:19.390Z,99287.69
2022-10-23T04:35:22.046Z,99286.25
2022-10-23T04:40:24.143Z,99273.25
2022-10-23T04:45:28.719Z,99270.41
2022-10-23T04:50:30.821Z,99267.72
2022-10-23T04:56:01.672Z,99266.75
2022-10-23T05:01:23.027Z,99264.41
2022-10-23T05:06:25.151Z,99263.97
2022-10-23T05:11:50.741Z,99257.19
2022-10-23T05:17:00.941Z,99253.19
2022-10-23T05:22:04.266Z,99265.53
2022-10-23T05:27:21.087Z,99260.56
2022-10-23T05:32:24.856Z,99265.56
2022-10-23T05:37:28.279Z,99258.50
2022-10-23T05:42:41.813Z,99267.75
2022-10-23T05:47:46.378Z,99259.84
2022-10-23T05:53:02.764Z,99255.38
2022-10-23T05:58:09.226Z,99251.22
2022-10-23T06:03:34.174Z,99248.91
2022-10-23T06:08:38.629Z,99238.03
2022-10-23T06:13:43.088Z,99236.91
2022-10-23T06:18:46.198Z,99228.13
2022-10-23T06:23:50.716Z,99217.06
2022-10-23T06:28:55.844Z,99200.22
2022-10-23T06:33:58.903Z,99195.44
2022-10-23T06:39:01.587Z,99204.31
2022-10-23T06:44:23.483Z,99194.88
2022-10-23T06:49:29.765Z,99191.56
2022-10-23T06:54:33.560Z,99182.28
2022-10-23T06:59:54.870Z,99177.38
2022-10-23T07:04:56.925Z,99174.63
2022-10-23T07:09:58.950Z,99171.47
2022-10-23T07:15:15.886Z,99163.78
2022-10-23T07:20:18.669Z,99156.88
2022-10-23T07:25:24.749Z,99147.13
2022-10-23T07:30:27.613Z,99151.31
2022-10-23T07:35:33.067Z,99156.53
2022-10-23T07:40:42.714Z,99152.75
2022-10-23T07:45:49.692Z,99140.94
2022-10-23T07:51:09.097Z,99140.53
2022-10-23T07:56:22.489Z,99135.00
2022-10-23T08:01:50.485Z,99129.31
2022-10-23T08:06:56.181Z,99131.88
2022-10-23T08:11:59.424Z,99131.59
2022-10-23T08:17:03.309Z,99135.94
2022-10-23T08:22:23.507Z,99108.47
2022-10-23T08:27:26.344Z,99133.34
2022-10-23T08:32:31.560Z,99125.03
2022-10-23T08:37:37.851Z,99134.09
2022-10-23T08:42:42.808Z,99132.22
2022-10-23T08:47:48.252Z,99119.63
2022-10-23T08:53:25.100Z,99119.63
2022-10-23T08:58:42.744Z,99121.38
2022-10-23T09:03:45.743Z,99102.91
2022-10-23T09:08:48.517Z,99099.31
2022-10-23T09:14:14.364Z,99101.34
2022-10-23T09:19:17.794Z,99092.56
2022-10-23T09:24:22.107Z,99080.56
2022-10-23T09:29:28.755Z,99071.22
2022-10-23T09:34:31.491Z,99060.44
2022-10-23T09:39:34.973Z,99056.97
2022-10-23T09:44:48.119Z,99059.88
2022-10-23T09:49:52.223Z,99062.06
2022-10-23T09:54:55.881Z,99052.38
2022-10-23T10:00:02.393Z,99049.00
2022-10-23T10:05:28.079Z,99044.13
2022-10-23T10:10:37.975Z,99047.53
2022-10-23T10:15:58.560Z,99043.34
2022-10-23T10:21:20.639Z,99028.22
2022-10-23T10:26:34.559Z,99031.66
2022-10-23T10:31:55.123Z,99022.25
2022-10-23T10:37:02.074Z,99010.88
2022-10-23T10:42:42.984Z,99009.75
2022-10-23T10:47:47.901Z,99009.41
2022-10-23T10:52:55.796Z,99008.56
2022-10-23T10:58:00.177Z,98972.38
2022-10-23T11:03:20.770Z,98978.19
2022-10-23T11:08:56.167Z,98983.81
2022-10-23T11:14:02.281Z,98973.63
2022-10-23T11:19:14.149Z,98973.81
2022-10-23T11:24:31.271Z,98951.25
2022-10-23T11:29:40.965Z,98959.47
2022-10-23T11:34:45.625Z,98963.81
2022-10-23T11:39:59.950Z,98945.06
2022-10-23T11:45:01.916Z,98939.47
2022-10-23T11:50:08.401Z,98929.25
2022-10-23T11:55:21.736Z,98929.97
2022-10-23T12:00:23.861Z,98925.63
2022-10-23T12:05:45.798Z,98918.81
2022-10-23T12:10:55.579Z,98909.94
2022-10-23T12:16:00.129Z,98917.81
2022-10-23T12:21:04.663Z,98925.09
2022-10-23T12:26:12.735Z,98917.53
2022-10-23T12:31:29.287Z,98925.94
2022-10-23T12:36:45.629Z,98913.53
2022-10-23T12:41:47.679Z,98914.66
2022-10-23T12:46:51.024Z,98910.72
2022-10-23T12:51:57.576Z,98895.25
2022-10-23T12:57:00.132Z,98893.34
2022-10-23T13:02:02.338Z,98885.94
2022-10-23T13:07:04.513Z,98887.41
2022-10-23T13:12:09.036Z,98881.59
2022-10-23T13:17:12.035Z,98873.47
2022-10-23T13:22:19.695Z,98869.00
2022-10-23T13:27:26.097Z,98860.53
2022-10-23T13:32:29.796Z,98861.91
2022-10-23T13:37:31.831Z,98862.28
2022-10-23T13:42:34.031Z,98866.09
2022-10-23T13:47:35.907Z,98859.16
2022-10-23T13:52:37.804Z,98850.50
2022-10-23T13:57:39.752Z,98842.22
2022-10-23T14:02:42.476Z,98850.31
2022-10-23T14:07:45.052Z,98841.88
2022-10-23T14:12:47.736Z,98845.69
2022-10-23T14:17:49.955Z,98843.22
2022-10-23T14:22:51.916Z,98833.47
2022-10-23T14:32:57.554Z,98828.81
2022-10-23T14:37:59.525Z,98826.00
2022-10-23T14:43:01.480Z,98820.72
2022-10-23T14:48:03.467Z,98813.25
2022-10-23T14:53:05.494Z,98811.53
2022-10-23T14:58:07.583Z,98804.66
2022-10-23T15:03:09.531Z,98813.78
2022-10-23T15:08:11.572Z,98793.63
2022-10-23T15:13:13.651Z,98790.56
2022-10-23T15:18:15.633Z,98788.09
2022-10-23T15:23:17.558Z,98786.91
2022-10-23T15:28:19.482Z,98782.06
2022-10-23T15:33:21.846Z,98790.81
2022-10-23T15:38:24.583Z,98786.63
2022-10-23T15:43:26.639Z,98786.91
2022-10-23T15:48:28.558Z,98782.25
2022-10-23T15:53:30.617Z,98770.94
2022-10-23T15:58:32.682Z,98792.81
2022-10-23T16:03:35.101Z,98785.25
2022-10-23T16:08:37.114Z,98781.97
2022-10-23T16:13:39.118Z,98790.72
2022-10-23T16:18:41.472Z,98784.06
2022-10-23T16:23:43.400Z,98779.31
2022-10-23T16:28:47.235Z,98769.56
2022-10-23T16:33:50.051Z,98761.53
2022-10-23T16:38:52.049Z,98764.09
2022-10-23T16:43:58.929Z,98757.25
2022-10-23T16:49:21.084Z,98753.84
2022-10-23T16:54:23.025Z,98746.66
2022-10-23T16:59:24.928Z,98747.16
2022-10-23T17:04:26.798Z,98740.03
2022-10-23T17:09:31.355Z,98725.44
2022-10-23T17:14:33.417Z,98728.72
2022-10-23T17:19:45.452Z,98706.19
2022-10-23T17:24:51.477Z,98714.94
2022-10-23T17:29:55.980Z,98701.91
2022-10-23T17:34:57.960Z,98698.25
2022-10-23T17:40:02.575Z,98697.25
2022-10-23T17:45:05.678Z,98689.31
2022-10-23T17:50:09.616Z,98688.47
2022-10-23T17:55:12.670Z,98678.91
2022-10-23T18:00:16.277Z,98677.25
2022-10-23T18:05:18.226Z,98663.41
2022-10-23T18:10:20.222Z,98667.50
2022-10-23T18:15:22.252Z,98664.84
2022-10-23T18:20:24.181Z,98665.13
2022-10-23T18:25:26.141Z,98657.34
2022-10-23T18:30:28.095Z,98660.63
2022-10-23T18:35:33.398Z,98659.22
2022-10-23T18:40:36.349Z,98654.56
2022-10-23T18:45:42.039Z,98644.25
2022-10-23T18:50:43.934Z,98634.47
2022-10-23T18:55:49.435Z,98640.97
2022-10-23T19:00:51.473Z,98638.75
2022-10-23T19:05:53.944Z,98635.53
2022-10-23T19:10:57.498Z,98625.59
2022-10-23T19:15:59.586Z,98620.91
2022-10-23T19:21:04.537Z,98617.66
2022-10-23T19:26:09.973Z,98615.63
2022-10-23T19:31:12.223Z,98616.81
2022-10-23T19:36:14.667Z,98624.69
2022-10-23T19:41:18.242Z,98623.81
2022-10-23T19:46:20.256Z,98618.16
2022-10-23T19:51:22.159Z,98622.25
2022-10-23T19:56:24.676Z,98613.03
2022-10-23T20:01:26.876Z,98606.94
2022-10-23T20:06:31.643Z,98605.09
2022-10-23T20:11:33.754Z,98592.88
2022-10-23T20:16:37.122Z,98591.44
2022-10-23T20:21:40.732Z,98587.38
2022-10-23T20:26:45.237Z,98594.03
2022-10-23T20:31:47.669Z,98583.91
2022-10-23T20:36:49.830Z,98586.72
2022-10-23T20:41:52.469Z,98580.25
2022-10-23T20:46:54.887Z,98575.41
2022-10-23T20:51:57.051Z,98583.44
2022-10-23T20:56:59.020Z,98581.00
2022-10-23T21:02:00.998Z,98575.75
2022-10-23T21:07:11.424Z,98571.66
2022-10-23T21:12:15.795Z,98571.22
2022-10-23T21:17:18.775Z,98566.16
2022-10-23T21:22:20.715Z,98565.75
2022-10-23T21:27:22.710Z,98571.84
2022-10-23T21:32:24.671Z,98560.63
2022-10-23T21:37:26.614Z,98569.41
2022-10-23T21:47:33.080Z,98561.25
2022-10-23T21:52:35.013Z,98567.34
2022-10-23T21:57:36.921Z,98569.56
2022-10-23T22:02:38.888Z,98549.09
2022-10-23T22:07:40.995Z,98571.13
2022-10-23T22:12:43.062Z,98567.88
2022-10-23T22:17:45.143Z,98570.69
2022-10-23T22:22:47.240Z,98571.31
2022-10-23T22:27:49.149Z,98574.41
2022-10-23T22:32:51.176Z,98571.38
2022-10-23T22:37:53.117Z,98572.22
2022-10-23T22:42:55.086Z,98566.91
2022-10-23T22:47:57.112Z,98571.38
2022-10-23T22:52:59.044Z,98566.28
2022-10-23T22:58:00.958Z,98564.06
2022-10-23T23:03:03.138Z,98560.03
2022-10-23T23:08:05.246Z,98555.97
2022-10-23T23:13:07.697Z,98564.91
2022-10-23T23:18:09.683Z,98556.75
2022-10-23T23:23:14.356Z,98565.28
2022-10-23T23:28:17.878Z,98565.66
2022-10-23T23:33:19.842Z,98567.59
2022-10-23T23:38:21.801Z,98583.84
2022-10-23T23:43:23.779Z,98571.72
2022-10-23T23:48:25.946Z,98566.63
2022-10-23T23:53:27.913Z,98580.63
2022-10-23T23:58:29.974Z,98562.88
